Time;durP1;ratioP1;P1;durP2;ratioP2;P2;SDS_P1;SDS_P2;PMS_P1;PMS_P2;Temp;Humidity;BMP_temperature;BMP_pressure;BME280_temperature;BME280_humidity;BME280_pressure;Samples;Min_cycle;Max_cycle;Signal;HPM_P1;HPM_P2
2022/06/20 00:02:23;;;;;;;1.40;0.70;;;;;;;;;;5013986;28;92497;-64
2022/06/20 00:04:50;;;;;;;1.88;0.82;;;;;;;;;;5014918;28;92964;-65
2022/06/20 00:07:18;;;;;;;2.03;0.90;;;;;;;;;;5014783;28;93512;-65
2022/06/20 00:09:45;;;;;;;1.98;0.82;;;;;;;;;;5015336;28;91693;-65
2022/06/20 00:12:19;;;;;;;2.13;0.90;;;;;;;;;;5017953;28;92371;-65
2022/06/20 00:14:46;;;;;;;1.60;0.70;;;;;;;;;;5014995;28;92373;-65
2022/06/20 00:17:13;;;;;;;2.13;0.88;;;;;;;;;;5012415;28;94801;-64
2022/06/20 00:19:42;;;;;;;1.50;0.90;;;;;;;;;;5014452;28;93493;-65
2022/06/20 00:22:09;;;;;;;1.93;0.50;;;;;;;;;;5014655;28;92453;-65
2022/06/20 00:24:35;;;;;;;2.72;0.90;;;;;;;;;;5014940;28;94152;-65
2022/06/20 00:27:06;;;;;;;2.15;0.80;;;;;;;;;;5014594;28;93220;-65
2022/06/20 00:29:33;;;;;;;1.67;0.88;;;;;;;;;;5014557;28;92748;-65
2022/06/20 00:32:00;;;;;;;1.02;0.73;;;;;;;;;;5014688;28;94205;-65
2022/06/20 00:34:26;;;;;;;2.50;0.93;;;;;;;;;;5017606;28;92093;-65
2022/06/20 00:36:52;;;;;;;2.10;0.98;;;;;;;;;;5014904;28;93439;-65
2022/06/20 00:39:19;;;;;;;1.42;0.70;;;;;;;;;;5014332;28;93282;-65
2022/06/20 00:41:45;;;;;;;1.70;0.82;;;;;;;;;;5013142;28;94802;-65
2022/06/20 00:44:13;;;;;;;1.55;0.80;;;;;;;;;;5014536;28;96547;-64
2022/06/20 00:46:42;;;;;;;1.70;0.70;;;;;;;;;;5014761;28;94392;-65
2022/06/20 00:49:09;;;;;;;2.37;1.00;;;;;;;;;;5014463;28;92579;-65
2022/06/20 00:51:35;;;;;;;1.88;0.90;;;;;;;;;;5014275;28;92896;-66
2022/06/20 00:54:11;;;;;;;1.60;0.60;;;;;;;;;;5015928;28;94246;-65
2022/06/20 00:56:50;;;;;;;1.85;0.80;;;;;;;;;;5021418;28;92491;-65
2022/06/20 00:59:20;;;;;;;2.35;0.85;;;;;;;;;;5018281;28;92622;-65
2022/06/20 01:01:47;;;;;;;1.17;0.75;;;;;;;;;;5018204;28;92348;-65
2022/06/20 01:04:23;;;;;;;3.25;1.05;;;;;;;;;;5018090;28;92410;-65
2022/06/20 01:06:56;;;;;;;1.25;0.70;;;;;;;;;;5016042;28;95892;-65
2022/06/20 01:09:24;;;;;;;1.55;0.73;;;;;;;;;;5017615;28;92403;-65
2022/06/20 01:11:52;;;;;;;2.95;1.20;;;;;;;;;;5017620;28;93222;-65
2022/06/20 01:14:23;;;;;;;2.53;1.10;;;;;;;;;;5017472;28;93588;-65
2022/06/20 01:16:54;;;;;;;1.15;0.73;;;;;;;;;;5021467;28;92465;-65
2022/06/20 01:19:31;;;;;;;3.55;1.30;;;;;;;;;;5017633;28;94849;-66
2022/06/20 01:21:59;;;;;;;3.70;1.13;;;;;;;;;;5017671;28;92380;-65
2022/06/20 01:24:30;;;;;;;1.55;0.70;;;;;;;;;;5017995;28;93897;-65
2022/06/20 01:27:28;;;;;;;2.40;1.05;;;;;;;;;;5017542;28;93596;-65
2022/06/20 01:29:54;;;;;;;1.90;0.88;;;;;;;;;;5004443;28;93360;-65
2022/06/20 01:32:21;;;;;;;1.60;0.80;;;;;;;;;;5015390;28;94838;-65
2022/06/20 01:34:47;;;;;;;2.17;0.60;;;;;;;;;;5016400;28;93670;-65
2022/06/20 01:37:25;;;;;;;1.85;0.90;;;;;;;;;;5017055;28;92424;-65
2022/06/20 01:39:58;;;;;;;1.60;0.60;;;;;;;;;;5020153;28;93210;-65
2022/06/20 01:42:26;;;;;;;1.35;0.70;;;;;;;;;;5017093;28;92337;-65
2022/06/20 01:45:00;;;;;;;3.47;0.98;;;;;;;;;;5017162;28;92468;-65
2022/06/20 01:47:27;;;;;;;2.75;0.77;;;;;;;;;;5017207;28;93826;-65
2022/06/20 01:49:55;;;;;;;2.78;0.73;;;;;;;;;;5017521;28;91658;-65
2022/06/20 01:52:24;;;;;;;2.65;0.70;;;;;;;;;;5017440;28;92650;-65
2022/06/20 01:54:56;;;;;;;2.42;0.68;;;;;;;;;;5017074;28;93113;-65
2022/06/20 01:57:23;;;;;;;1.63;0.65;;;;;;;;;;5015719;28;94755;-65
2022/06/20 01:59:58;;;;;;;4.32;1.00;;;;;;;;;;5016871;28;95489;-65
2022/06/20 02:02:26;;;;;;;2.08;0.77;;;;;;;;;;5019986;28;93498;-65
2022/06/20 02:04:53;;;;;;;2.83;0.90;;;;;;;;;;5016965;28;94582;-65
2022/06/20 02:07:19;;;;;;;1.67;0.80;;;;;;;;;;5016785;28;93247;-65
2022/06/20 02:09:46;;;;;;;3.03;0.93;;;;;;;;;;5016504;28;92547;-65
2022/06/20 02:12:14;;;;;;;2.20;0.77;;;;;;;;;;5016826;28;93314;-65
2022/06/20 02:14:59;;;;;;;1.50;0.70;;;;;;;;;;5017149;28;92541;-65
2022/06/20 02:17:29;;;;;;;2.45;1.05;;;;;;;;;;4997154;28;92542;-65
2022/06/20 02:19:56;;;;;;;1.50;0.80;;;;;;;;;;4996447;28;93245;-65
2022/06/20 02:22:23;;;;;;;2.78;0.80;;;;;;;;;;4994556;28;95625;-65
2022/06/20 02:24:51;;;;;;;2.90;0.77;;;;;;;;;;4999479;28;92332;-66
2022/06/20 02:27:47;;;;;;;2.58;0.85;;;;;;;;;;4996252;28;93318;-65
2022/06/20 02:30:14;;;;;;;2.85;0.82;;;;;;;;;;4973607;28;92597;-65
2022/06/20 02:32:43;;;;;;;3.60;0.82;;;;;;;;;;4974253;28;94540;-65
2022/06/20 02:35:11;;;;;;;1.90;0.95;;;;;;;;;;4957036;28;93702;-65
2022/06/20 02:37:37;;;;;;;1.63;0.88;;;;;;;;;;4974214;28;92743;-65
2022/06/20 02:40:05;;;;;;;2.65;1.08;;;;;;;;;;4958006;28;92877;-65
2022/06/20 02:42:34;;;;;;;2.63;0.82;;;;;;;;;;4974333;28;94701;-65
2022/06/20 02:45:01;;;;;;;1.38;0.70;;;;;;;;;;4974092;28;92491;-65
2022/06/20 02:47:28;;;;;;;1.92;0.93;;;;;;;;;;4975354;28;94966;-65
2022/06/20 02:49:55;;;;;;;2.22;0.95;;;;;;;;;;4973656;28;92546;-65
2022/06/20 02:52:25;;;;;;;2.33;0.70;;;;;;;;;;4974103;28;93148;-65
2022/06/20 02:54:52;;;;;;;3.40;0.90;;;;;;;;;;4973658;28;93717;-65
2022/06/20 02:57:33;;;;;;;2.15;0.70;;;;;;;;;;4973521;28;92541;-65
2022/06/20 03:00:00;;;;;;;1.35;0.80;;;;;;;;;;4973632;28;93135;-65
2022/06/20 03:02:28;;;;;;;2.63;0.75;;;;;;;;;;4973593;28;93507;-65
2022/06/20 03:04:55;;;;;;;2.92;0.70;;;;;;;;;;4974416;28;91720;-65
2022/06/20 03:07:23;;;;;;;2.63;0.90;;;;;;;;;;5005616;28;93463;-65
2022/06/20 03:09:54;;;;;;;1.90;0.80;;;;;;;;;;5018558;28;93734;-65
2022/06/20 03:12:20;;;;;;;3.00;0.73;;;;;;;;;;5014046;28;94878;-65
2022/06/20 03:14:52;;;;;;;2.65;0.85;;;;;;;;;;5014600;28;94538;-65
2022/06/20 03:17:19;;;;;;;3.15;1.10;;;;;;;;;;5015746;27;92496;-65
2022/06/20 03:19:48;;;;;;;1.17;0.60;;;;;;;;;;5015778;28;93104;-65
2022/06/20 03:22:16;;;;;;;1.38;0.60;;;;;;;;;;5015613;28;93480;-65
2022/06/20 03:24:43;;;;;;;1.98;0.75;;;;;;;;;;5015295;28;92355;-65
2022/06/20 03:27:12;;;;;;;2.53;0.93;;;;;;;;;;5015677;28;93301;-65
2022/06/20 03:29:38;;;;;;;1.77;0.75;;;;;;;;;;5018723;28;92916;-66
2022/06/20 03:32:05;;;;;;;2.72;1.00;;;;;;;;;;5015735;28;93538;-65
2022/06/20 03:34:32;;;;;;;2.22;0.80;;;;;;;;;;5014546;28;93559;-65
2022/06/20 03:37:06;;;;;;;2.50;1.00;;;;;;;;;;5013903;28;94804;-64
2022/06/20 03:39:34;;;;;;;1.57;0.60;;;;;;;;;;5015276;28;95505;-65
2022/06/20 03:42:01;;;;;;;1.38;0.68;;;;;;;;;;5015086;28;92427;-65
2022/06/20 03:44:38;;;;;;;2.25;0.70;;;;;;;;;;5015515;28;92343;-64
2022/06/20 03:47:09;;;;;;;3.28;1.00;;;;;;;;;;5015578;28;93289;-65
2022/06/20 03:49:40;;;;;;;2.65;0.80;;;;;;;;;;5013856;28;94698;-64
2022/06/20 03:52:20;;;;;;;1.88;0.93;;;;;;;;;;5018840;28;92635;-65
2022/06/20 03:54:58;;;;;;;3.17;1.00;;;;;;;;;;5015937;28;92321;-65
2022/06/20 03:57:30;;;;;;;0.80;0.50;;;;;;;;;;5015275;28;92385;-65
2022/06/20 04:00:00;;;;;;;3.03;0.90;;;;;;;;;;5015318;28;92988;-65
2022/06/20 04:02:33;;;;;;;4.07;0.95;;;;;;;;;;5013234;28;96155;-64
2022/06/20 04:05:11;;;;;;;2.53;0.70;;;;;;;;;;5015351;28;92444;-65
2022/06/20 04:07:57;;;;;;;1.65;0.60;;;;;;;;;;5015297;28;94291;-65
2022/06/20 04:13:12;;;;;;;1.23;0.68;;;;;;;;;;5015253;28;92341;-65
2022/06/20 04:15:48;;;;;;;1.35;0.60;;;;;;;;;;5018271;28;94406;-65
2022/06/20 04:18:29;;;;;;;1.00;0.70;;;;;;;;;;5014706;28;92416;-65
2022/06/20 04:21:11;;;;;;;1.63;0.75;;;;;;;;;;5015043;28;93291;-65
2022/06/20 04:23:43;;;;;;;2.17;0.90;;;;;;;;;;5014682;28;92460;-65
2022/06/20 04:26:17;;;;;;;1.88;0.80;;;;;;;;;;5014550;28;92484;-65
2022/06/20 04:28:55;;;;;;;2.20;0.65;;;;;;;;;;5014332;28;94772;-65
2022/06/20 04:31:31;;;;;;;1.35;0.70;;;;;;;;;;5017898;28;93516;-65
2022/06/20 04:34:09;;;;;;;1.48;0.60;;;;;;;;;;5017757;28;92514;-65
2022/06/20 04:36:39;;;;;;;2.20;0.98;;;;;;;;;;5016839;28;93681;-65
2022/06/20 04:39:12;;;;;;;2.20;0.90;;;;;;;;;;5021038;28;93287;-65
2022/06/20 04:41:42;;;;;;;1.90;0.80;;;;;;;;;;5018096;28;93271;-65
2022/06/20 04:44:21;;;;;;;0.68;0.50;;;;;;;;;;5018000;28;93722;-65
2022/06/20 04:46:50;;;;;;;2.03;0.70;;;;;;;;;;5018856;28;91704;-65
2022/06/20 04:49:17;;;;;;;3.70;0.75;;;;;;;;;;5018366;28;93550;-65
2022/06/20 04:51:45;;;;;;;1.38;0.70;;;;;;;;;;5017973;28;94438;-65
2022/06/20 04:54:15;;;;;;;2.17;0.90;;;;;;;;;;5016417;28;95152;-65
2022/06/20 04:56:42;;;;;;;1.65;0.82;;;;;;;;;;5018016;28;95553;-65
2022/06/20 04:59:18;;;;;;;1.88;0.70;;;;;;;;;;5017926;28;93422;-64
2022/06/20 05:01:45;;;;;;;0.93;0.60;;;;;;;;;;5021156;28;92658;-65
2022/06/20 05:04:19;;;;;;;0.80;0.52;;;;;;;;;;5017763;28;92461;-65
2022/06/20 05:06:46;;;;;;;3.03;1.00;;;;;;;;;;5017527;28;93069;-65
2022/06/20 05:09:18;;;;;;;0.63;0.50;;;;;;;;;;5017811;28;94202;-65
2022/06/20 05:11:47;;;;;;;1.98;1.00;;;;;;;;;;5017693;28;93199;-65
2022/06/20 05:14:17;;;;;;;1.23;0.60;;;;;;;;;;5018136;28;92346;-65
2022/06/20 05:16:50;;;;;;;2.65;0.82;;;;;;;;;;5017939;28;93265;-65
2022/06/20 05:19:31;;;;;;;2.83;0.90;;;;;;;;;;5015502;28;95975;-65
2022/06/20 05:21:58;;;;;;;2.03;0.98;;;;;;;;;;5017857;28;92443;-65
2022/06/20 05:24:28;;;;;;;1.92;0.70;;;;;;;;;;5020555;28;94270;-65
2022/06/20 05:26:54;;;;;;;1.08;0.60;;;;;;;;;;5017450;28;92363;-65
2022/06/20 05:29:27;;;;;;;2.45;0.90;;;;;;;;;;5017256;28;93217;-65
2022/06/20 05:31:55;;;;;;;1.60;0.70;;;;;;;;;;5016997;28;93459;-65
2022/06/20 05:34:39;;;;;;;1.42;0.57;;;;;;;;;;5016809;28;92450;-65
2022/06/20 05:37:15;;;;;;;2.10;0.73;;;;;;;;;;5017661;28;93385;-65
2022/06/20 05:39:42;;;;;;;1.85;0.77;;;;;;;;;;5016780;28;93517;-65
2022/06/20 05:42:11;;;;;;;3.33;0.73;;;;;;;;;;5017120;28;92466;-65
2022/06/20 05:44:37;;;;;;;1.20;0.73;;;;;;;;;;5018851;28;94728;-65
2022/06/20 05:47:05;;;;;;;0.60;0.45;;;;;;;;;;5017313;28;92475;-65
2022/06/20 05:49:43;;;;;;;1.50;0.82;;;;;;;;;;5016889;28;93585;-65
2022/06/20 05:52:15;;;;;;;0.95;0.70;;;;;;;;;;5017029;28;93230;-64
2022/06/20 05:54:44;;;;;;;2.35;0.80;;;;;;;;;;5016914;28;92335;-65
2022/06/20 05:57:18;;;;;;;4.87;0.80;;;;;;;;;;5016885;28;93473;-65
2022/06/20 05:59:58;;;;;;;2.33;1.08;;;;;;;;;;5016971;28;93440;-65
2022/06/20 06:02:39;;;;;;;0.77;0.57;;;;;;;;;;5017555;28;91695;-65
2022/06/20 06:05:15;;;;;;;1.17;0.75;;;;;;;;;;5016849;28;92352;-66
2022/06/20 06:08:00;;;;;;;1.30;0.70;;;;;;;;;;5018559;28;94842;-65
2022/06/20 06:10:41;;;;;;;1.52;0.80;;;;;;;;;;5015145;28;94980;-65
2022/06/20 06:13:23;;;;;;;3.33;0.70;;;;;;;;;;5016722;28;93588;-65
2022/06/20 06:18:59;;;;;;;1.55;0.65;;;;;;;;;;5017047;28;94099;-65
2022/06/20 06:21:26;;;;;;;2.00;0.85;;;;;;;;;;5016110;28;93501;-65
2022/06/20 06:23:52;;;;;;;3.83;1.00;;;;;;;;;;5016670;28;92437;-65
2022/06/20 06:26:19;;;;;;;2.63;0.90;;;;;;;;;;5016494;28;93062;-64
2022/06/20 06:28:47;;;;;;;2.78;0.80;;;;;;;;;;5017011;28;92973;-65
2022/06/20 06:31:33;;;;;;;2.58;0.80;;;;;;;;;;5019807;28;92426;-65
2022/06/20 06:34:02;;;;;;;1.30;0.77;;;;;;;;;;5015928;28;94320;-65
2022/06/20 06:36:46;;;;;;;1.77;0.90;;;;;;;;;;5014653;28;94878;-65
2022/06/20 06:39:21;;;;;;;2.50;1.00;;;;;;;;;;5016215;28;94488;-65
2022/06/20 06:41:49;;;;;;;1.90;1.10;;;;;;;;;;5016018;28;93230;-65
2022/06/20 06:44:31;;;;;;;2.85;1.10;;;;;;;;;;5016470;28;92355;-65
2022/06/20 06:46:59;;;;;;;1.35;0.80;;;;;;;;;;5016589;28;93055;-65
2022/06/20 06:49:28;;;;;;;1.85;0.70;;;;;;;;;;5015826;28;93560;-65
2022/06/20 06:52:05;;;;;;;1.58;0.70;;;;;;;;;;5015451;28;92402;-65
2022/06/20 06:54:50;;;;;;;1.08;0.90;;;;;;;;;;5019487;28;92907;-65
2022/06/20 06:57:19;;;;;;;1.85;0.90;;;;;;;;;;5015885;28;92398;-65
2022/06/20 06:59:49;;;;;;;2.28;0.80;;;;;;;;;;5016202;28;93132;-65
2022/06/20 07:02:20;;;;;;;2.70;1.00;;;;;;;;;;5014114;28;94732;-65
2022/06/20 07:04:58;;;;;;;1.30;0.75;;;;;;;;;;5016020;28;92426;-65
2022/06/20 07:07:29;;;;;;;1.05;0.88;;;;;;;;;;5015751;28;93340;-65
2022/06/20 07:09:56;;;;;;;1.15;0.70;;;;;;;;;;5015505;28;93757;-65
2022/06/20 07:12:31;;;;;;;1.92;0.80;;;;;;;;;;5015837;28;92393;-65
2022/06/20 07:15:04;;;;;;;3.42;0.90;;;;;;;;;;5016443;28;94227;-65
2022/06/20 07:17:30;;;;;;;3.30;1.25;;;;;;;;;;5018712;28;93706;-65
2022/06/20 07:19:58;;;;;;;3.10;0.85;;;;;;;;;;5016360;28;93114;-65
2022/06/20 07:22:32;;;;;;;3.75;0.80;;;;;;;;;;5015619;28;94498;-65
2022/06/20 07:24:58;;;;;;;1.88;1.00;;;;;;;;;;5015820;28;92461;-65
2022/06/20 07:27:27;;;;;;;1.52;0.75;;;;;;;;;;5013807;28;94706;-65
2022/06/20 07:29:58;;;;;;;1.35;0.60;;;;;;;;;;5014421;28;94348;-65
2022/06/20 07:32:29;;;;;;;2.65;0.95;;;;;;;;;;5015058;28;92530;-65
2022/06/20 07:34:58;;;;;;;1.75;0.90;;;;;;;;;;5015450;28;93867;-65
2022/06/20 07:37:47;;;;;;;2.47;0.90;;;;;;;;;;5015097;28;93706;-65
2022/06/20 07:40:21;;;;;;;1.48;0.90;;;;;;;;;;5012476;28;92468;-65
2022/06/20 07:42:52;;;;;;;1.67;0.75;;;;;;;;;;5015265;28;93178;-65
2022/06/20 07:45:19;;;;;;;1.92;1.00;;;;;;;;;;5012639;28;91782;-65
2022/06/20 07:47:51;;;;;;;1.58;0.90;;;;;;;;;;4995350;28;92421;-65
2022/06/20 07:50:19;;;;;;;1.27;0.75;;;;;;;;;;5001511;28;93536;-65
2022/06/20 07:52:49;;;;;;;1.90;1.00;;;;;;;;;;5013854;28;94850;-66
2022/06/20 07:55:18;;;;;;;4.13;1.27;;;;;;;;;;5015020;28;95856;-64
2022/06/20 07:57:53;;;;;;;2.43;0.87;;;;;;;;;;5014613;28;93301;-65
2022/06/20 08:00:22;;;;;;;1.77;1.10;;;;;;;;;;5018548;28;92438;-65
2022/06/20 08:02:50;;;;;;;3.20;0.90;;;;;;;;;;5015002;28;93609;-65
2022/06/20 08:05:37;;;;;;;1.73;1.00;;;;;;;;;;5015494;28;92739;-65
2022/06/20 08:08:11;;;;;;;2.15;1.08;;;;;;;;;;5013467;28;93081;-64
2022/06/20 08:10:41;;;;;;;1.33;0.88;;;;;;;;;;5015319;28;92500;-65
2022/06/20 08:13:13;;;;;;;1.63;1.10;;;;;;;;;;5015352;28;92396;-66
2022/06/20 08:15:54;;;;;;;2.30;1.10;;;;;;;;;;5015214;28;93141;-65
2022/06/20 08:18:21;;;;;;;1.58;1.05;;;;;;;;;;5013008;28;96948;-65
2022/06/20 08:20:52;;;;;;;1.88;0.98;;;;;;;;;;5015203;28;92491;-65
2022/06/20 08:23:21;;;;;;;1.90;1.00;;;;;;;;;;5017708;28;93306;-65
2022/06/20 08:25:56;;;;;;;1.27;1.00;;;;;;;;;;5014964;28;92400;-65
2022/06/20 08:28:34;;;;;;;1.33;1.10;;;;;;;;;;5014789;28;93126;-65
2022/06/20 08:31:08;;;;;;;2.50;1.20;;;;;;;;;;5014116;28;92442;-65
2022/06/20 08:33:43;;;;;;;2.50;1.08;;;;;;;;;;5014622;28;92403;-65
2022/06/20 08:36:19;;;;;;;2.65;1.25;;;;;;;;;;5015481;28;94105;-65
2022/06/20 08:38:49;;;;;;;0.85;0.75;;;;;;;;;;5014532;28;94769;-65
2022/06/20 08:41:37;;;;;;;0.90;0.70;;;;;;;;;;5014445;28;93090;-65
2022/06/20 08:44:28;;;;;;;1.55;0.88;;;;;;;;;;5013154;28;94825;-65
2022/06/20 08:47:06;;;;;;;1.25;0.88;;;;;;;;;;5017766;28;94039;-65
2022/06/20 08:49:51;;;;;;;1.98;0.95;;;;;;;;;;5014218;28;93498;-65
2022/06/20 08:52:19;;;;;;;1.95;1.00;;;;;;;;;;5013381;28;94265;-65
2022/06/20 08:54:57;;;;;;;2.05;1.20;;;;;;;;;;5014493;28;92549;-65
2022/06/20 08:57:23;;;;;;;1.42;0.68;;;;;;;;;;5014691;28;92964;-65
2022/06/20 09:00:00;;;;;;;2.22;1.02;;;;;;;;;;5014321;28;93409;-64
2022/06/20 09:02:45;;;;;;;1.13;0.85;;;;;;;;;;5015290;28;91697;-65
2022/06/20 09:05:17;;;;;;;2.55;1.10;;;;;;;;;;5014583;28;92386;-65
2022/06/20 09:07:53;;;;;;;1.50;0.88;;;;;;;;;;5014481;28;93224;-65
2022/06/20 09:10:22;;;;;;;1.23;0.93;;;;;;;;;;5015761;28;94867;-65
2022/06/20 09:13:07;;;;;;;3.72;1.13;;;;;;;;;;5013987;28;94819;-65
2022/06/20 09:15:33;;;;;;;0.82;0.70;;;;;;;;;;5017059;28;92415;-65
2022/06/20 09:18:00;;;;;;;1.80;0.88;;;;;;;;;;5017522;28;92937;-65
2022/06/20 09:20:29;;;;;;;1.85;1.00;;;;;;;;;;5017560;28;94594;-65
2022/06/20 09:23:14;;;;;;;2.45;1.05;;;;;;;;;;5017535;28;92787;-64
2022/06/20 09:25:49;;;;;;;2.05;0.98;;;;;;;;;;5017743;28;94530;-65
2022/06/20 09:28:21;;;;;;;1.23;0.82;;;;;;;;;;5017919;28;93865;-65
2022/06/20 09:30:50;;;;;;;1.40;0.93;;;;;;;;;;5017672;28;92502;-66
2022/06/20 09:33:29;;;;;;;1.38;0.90;;;;;;;;;;5019987;28;94180;-65
2022/06/20 09:36:10;;;;;;;0.93;0.60;;;;;;;;;;5015898;28;94752;-65
2022/06/20 09:38:36;;;;;;;2.85;0.80;;;;;;;;;;5017169;28;95764;-65
2022/06/20 09:41:29;;;;;;;0.90;0.68;;;;;;;;;;5017120;28;93458;-64
2022/06/20 09:44:00;;;;;;;1.13;0.70;;;;;;;;;;5016935;28;92390;-65
2022/06/20 09:46:35;;;;;;;2.13;1.10;;;;;;;;;;5017959;28;93920;-66
2022/06/20 09:49:04;;;;;;;1.85;0.90;;;;;;;;;;5017004;28;94412;-65
2022/06/20 09:51:39;;;;;;;5.22;1.17;;;;;;;;;;5016948;28;92438;-65
2022/06/20 09:54:08;;;;;;;1.52;0.95;;;;;;;;;;5020566;28;94230;-65
2022/06/20 09:56:51;;;;;;;1.73;1.00;;;;;;;;;;5017233;28;92555;-65
2022/06/20 09:59:41;;;;;;;1.33;1.00;;;;;;;;;;5017017;28;93466;-66
2022/06/20 10:02:23;;;;;;;1.33;0.80;;;;;;;;;;5011694;28;95914;-65
2022/06/20 10:05:04;;;;;;;2.00;0.90;;;;;;;;;;5016820;28;92482;-66
2022/06/20 10:07:45;;;;;;;2.97;1.08;;;;;;;;;;5016917;28;93399;-65
2022/06/20 10:10:24;;;;;;;1.65;1.00;;;;;;;;;;5016657;28;93699;-65
2022/06/20 10:13:06;;;;;;;0.88;0.70;;;;;;;;;;5016951;28;92367;-65
2022/06/20 10:15:37;;;;;;;1.00;0.88;;;;;;;;;;5017151;28;93145;-65
2022/06/20 10:18:17;;;;;;;1.40;0.90;;;;;;;;;;5019921;28;94869;-65
2022/06/20 10:20:44;;;;;;;1.77;1.10;;;;;;;;;;5017019;28;93230;-65
2022/06/20 10:23:28;;;;;;;1.42;0.90;;;;;;;;;;5016513;28;93469;-65
2022/06/20 10:26:10;;;;;;;1.73;1.00;;;;;;;;;;5015505;28;92441;-65
2022/06/20 10:28:47;;;;;;;1.70;0.95;;;;;;;;;;5015335;28;94736;-65
2022/06/20 10:31:19;;;;;;;1.65;0.90;;;;;;;;;;5015331;28;94494;-65
2022/06/20 10:33:52;;;;;;;1.85;1.02;;;;;;;;;;5016009;28;92419;-65
2022/06/20 10:36:18;;;;;;;2.05;0.82;;;;;;;;;;5016378;28;92342;-65
2022/06/20 10:38:57;;;;;;;2.72;1.10;;;;;;;;;;5016476;28;94165;-65
2022/06/20 10:41:27;;;;;;;1.27;1.02;;;;;;;;;;5019415;28;92587;-65
2022/06/20 10:44:12;;;;;;;1.55;0.80;;;;;;;;;;5016309;28;94512;-64
2022/06/20 10:46:40;;;;;;;2.40;1.00;;;;;;;;;;5017057;28;91757;-65
2022/06/20 10:49:15;;;;;;;1.50;1.10;;;;;;;;;;5016051;28;92635;-65
2022/06/20 10:51:57;;;;;;;1.45;0.90;;;;;;;;;;5015923;28;93639;-65
2022/06/20 10:54:38;;;;;;;1.50;1.10;;;;;;;;;;5014721;28;94968;-65
2022/06/20 10:57:21;;;;;;;1.58;1.00;;;;;;;;;;5016124;28;95493;-65
2022/06/20 11:00:01;;;;;;;2.15;1.20;;;;;;;;;;5015979;28;93440;-66
2022/06/20 11:02:27;;;;;;;;;;;;;;;;;;5016763;28;92370;-66
2022/06/20 11:05:18;;;;;;;1.20;0.88;;;;;;;;;;5019550;28;124217;-66
2022/06/20 11:07:49;;;;;;;1.25;1.00;;;;;;;;;;5016303;28;92501;-66
2022/06/20 11:10:21;;;;;;;2.03;1.23;;;;;;;;;;5015744;28;93068;-66
2022/06/20 11:13:06;;;;;;;2.08;0.98;;;;;;;;;;5016254;28;92822;-65
2022/06/20 11:15:47;;;;;;;1.25;0.82;;;;;;;;;;5016265;28;92454;-65
2022/06/20 11:18:25;;;;;;;1.80;1.00;;;;;;;;;;5015835;28;93191;-65
2022/06/20 11:20:59;;;;;;;1.52;1.00;;;;;;;;;;5013993;28;95809;-65
2022/06/20 11:23:52;;;;;;;4.18;1.25;;;;;;;;;;5015722;28;92414;-65
2022/06/20 11:26:22;;;;;;;1.50;1.00;;;;;;;;;;4993022;28;94269;-65
2022/06/20 11:28:48;;;;;;;;;;;;;;;;;;4980720;28;94561;-65
2022/06/20 11:31:35;;;;;;;1.85;1.00;;;;;;;;;;4993952;28;124232;-65
2022/06/20 11:34:13;;;;;;;1.52;0.90;;;;;;;;;;4982623;28;94918;-65
2022/06/20 11:36:47;;;;;;;1.70;1.13;;;;;;;;;;4993227;28;92844;-65
2022/06/20 11:39:16;;;;;;;1.58;0.88;;;;;;;;;;4993167;28;93163;-65
2022/06/20 11:41:47;;;;;;;4.50;1.05;;;;;;;;;;4992626;28;93398;-65
2022/06/20 11:44:22;;;;;;;1.80;1.10;;;;;;;;;;4992842;28;92565;-65
2022/06/20 11:46:54;;;;;;;1.52;1.10;;;;;;;;;;4991241;28;94950;-66
2022/06/20 11:49:30;;;;;;;1.48;1.00;;;;;;;;;;4992445;28;93548;-65
2022/06/20 11:52:03;;;;;;;3.50;0.93;;;;;;;;;;4995969;28;92556;-65
2022/06/20 11:54:47;;;;;;;1.50;0.90;;;;;;;;;;4992841;28;93237;-65
2022/06/20 11:57:23;;;;;;;1.90;0.77;;;;;;;;;;4992835;28;92413;-65
2022/06/20 12:00:05;;;;;;;3.20;0.98;;;;;;;;;;4993189;28;94116;-66
2022/06/20 12:02:38;;;;;;;1.20;0.90;;;;;;;;;;4997033;28;93819;-65
2022/06/20 12:05:17;;;;;;;1.42;0.80;;;;;;;;;;5015711;28;91620;-65
2022/06/20 12:07:53;;;;;;;4.13;1.10;;;;;;;;;;5014948;28;93460;-65
2022/06/20 12:10:39;;;;;;;1.58;1.00;;;;;;;;;;5014625;28;93222;-65
2022/06/20 12:13:28;;;;;;;1.85;1.10;;;;;;;;;;5016681;28;95052;-65
2022/06/20 12:16:02;;;;;;;2.03;1.00;;;;;;;;;;5015079;28;93547;-65
2022/06/20 12:18:37;;;;;;;1.85;0.80;;;;;;;;;;5013649;28;92461;-65
2022/06/20 12:23:55;;;;;;;2.47;1.20;;;;;;;;;;5014414;28;93435;-65
2022/06/20 12:26:29;;;;;;;3.42;1.08;;;;;;;;;;5014643;28;92354;-65
2022/06/20 12:28:56;;;;;;;2.25;0.95;;;;;;;;;;5014624;28;93293;-65
2022/06/20 12:31:29;;;;;;;2.05;1.27;;;;;;;;;;5014931;28;92761;-65
2022/06/20 12:34:15;;;;;;;1.65;1.00;;;;;;;;;;5014262;28;92492;-66
2022/06/20 12:36:48;;;;;;;4.00;1.08;;;;;;;;;;4996214;28;94181;-65
2022/06/20 12:39:21;;;;;;;1.35;1.02;;;;;;;;;;5013222;28;95211;-65
2022/06/20 12:42:11;;;;;;;2.55;1.05;;;;;;;;;;5014517;28;95514;-66
2022/06/20 12:44:40;;;;;;;3.47;0.73;;;;;;;;;;4972035;28;93307;-64
2022/06/20 12:47:15;;;;;;;3.30;1.20;;;;;;;;;;4971893;28;92609;-63
2022/06/20 12:50:03;;;;;;;1.83;1.00;;;;;;;;;;4974022;28;94243;-65
2022/06/20 12:52:32;;;;;;;3.20;1.52;;;;;;;;;;4975852;28;94444;-65
2022/06/20 12:55:07;;;;;;;1.77;1.08;;;;;;;;;;4976251;28;92914;-66
2022/06/20 12:58:14;;;;;;;2.05;1.08;;;;;;;;;;4976172;28;94880;-65
2022/06/20 13:00:45;;;;;;;2.58;0.90;;;;;;;;;;4978231;28;94243;-65
2022/06/20 13:03:17;;;;;;;1.83;1.13;;;;;;;;;;4975935;28;94114;-65
2022/06/20 13:06:03;;;;;;;1.35;0.88;;;;;;;;;;4973815;28;95446;-65
2022/06/20 13:08:35;;;;;;;2.45;1.10;;;;;;;;;;4975219;28;92423;-65
2022/06/20 13:11:15;;;;;;;2.75;1.20;;;;;;;;;;4976152;28;94333;-65
2022/06/20 13:13:41;;;;;;;1.98;1.10;;;;;;;;;;4975824;28;94436;-65
2022/06/20 13:16:17;;;;;;;1.70;1.08;;;;;;;;;;4975252;28;92465;-66
2022/06/20 13:18:44;;;;;;;1.95;1.02;;;;;;;;;;4975837;28;94092;-65
2022/06/20 13:21:29;;;;;;;3.40;1.05;;;;;;;;;;4981110;28;94460;-65
2022/06/20 13:24:07;;;;;;;1.20;0.90;;;;;;;;;;5001039;28;91629;-65
2022/06/20 13:26:42;;;;;;;1.02;0.93;;;;;;;;;;4997369;28;93973;-65
2022/06/20 13:29:25;;;;;;;2.33;1.00;;;;;;;;;;4997613;28;92455;-65
2022/06/20 13:31:54;;;;;;;1.38;0.90;;;;;;;;;;4996089;28;94810;-65
2022/06/20 13:34:35;;;;;;;2.53;1.10;;;;;;;;;;4996814;28;93360;-65
2022/06/20 13:37:34;;;;;;;2.50;1.20;;;;;;;;;;4996025;28;92430;-65
2022/06/20 13:40:14;;;;;;;2.05;1.13;;;;;;;;;;4984556;28;92757;-65
2022/06/20 13:42:47;;;;;;;2.58;1.25;;;;;;;;;;4997179;28;95769;-65
2022/06/20 13:45:14;;;;;;;0.60;0.60;;;;;;;;;;5000436;28;92435;-65
2022/06/20 13:47:51;;;;;;;2.35;1.00;;;;;;;;;;5018390;28;92920;-65
2022/06/20 13:50:22;;;;;;;2.45;0.95;;;;;;;;;;5018111;28;91586;-66
2022/06/20 13:52:51;;;;;;;2.08;1.02;;;;;;;;;;5017273;28;93335;-65
2022/06/20 13:55:29;;;;;;;1.63;1.10;;;;;;;;;;5017173;28;93723;-65
2022/06/20 13:58:06;;;;;;;1.75;1.00;;;;;;;;;;5015488;28;94789;-65
2022/06/20 14:00:33;;;;;;;1.55;1.05;;;;;;;;;;5017103;28;95691;-65
2022/06/20 14:03:20;;;;;;;2.03;1.33;;;;;;;;;;5016669;28;92427;-65
2022/06/20 14:05:47;;;;;;;1.45;1.02;;;;;;;;;;5017462;28;92399;-66
2022/06/20 14:08:21;;;;;;;2.17;1.20;;;;;;;;;;5016850;28;93464;-65
2022/06/20 14:10:59;;;;;;;2.92;1.02;;;;;;;;;;5019904;28;93694;-65
2022/06/20 14:13:28;;;;;;;2.45;1.15;;;;;;;;;;5016518;28;92891;-65
2022/06/20 14:16:15;;;;;;;2.13;1.07;;;;;;;;;;5017315;28;92794;-65
2022/06/20 14:18:54;;;;;;;1.25;0.93;;;;;;;;;;5016705;28;93192;-65
2022/06/20 14:21:21;;;;;;;2.42;1.20;;;;;;;;;;5016672;28;93048;-65
2022/06/20 14:23:49;;;;;;;1.20;0.82;;;;;;;;;;5014989;28;96274;-65
2022/06/20 14:26:34;;;;;;;1.77;1.10;;;;;;;;;;5016576;28;92507;-64
2022/06/20 14:29:02;;;;;;;1.55;1.00;;;;;;;;;;5016565;28;93112;-65
2022/06/20 14:31:31;;;;;;;3.70;1.35;;;;;;;;;;5019335;28;93230;-65
2022/06/20 14:34:01;;;;;;;3.28;1.00;;;;;;;;;;5016104;28;92910;-65
2022/06/20 14:36:31;;;;;;;3.75;1.20;;;;;;;;;;5016201;28;93643;-65
2022/06/20 14:39:03;;;;;;;2.40;1.00;;;;;;;;;;5016571;28;92687;-65
2022/06/20 14:41:40;;;;;;;1.70;1.10;;;;;;;;;;5016936;28;94525;-65
2022/06/20 14:44:24;;;;;;;1.88;1.05;;;;;;;;;;5016184;28;94951;-66
2022/06/20 14:46:51;;;;;;;2.45;1.02;;;;;;;;;;5016489;28;92418;-65
2022/06/20 14:49:21;;;;;;;1.25;1.00;;;;;;;;;;5014410;28;94829;-65
2022/06/20 14:51:55;;;;;;;1.63;1.13;;;;;;;;;;4995832;28;93387;-65
2022/06/20 14:54:24;;;;;;;3.85;0.98;;;;;;;;;;4998794;28;92483;-65
2022/06/20 14:57:11;;;;;;;1.80;1.20;;;;;;;;;;4995775;28;93614;-65
2022/06/20 14:59:49;;;;;;;1.27;0.93;;;;;;;;;;4996276;28;92468;-65
2022/06/20 15:02:34;;;;;;;1.17;0.75;;;;;;;;;;4995875;28;92382;-65
2022/06/20 15:05:03;;;;;;;5.38;1.05;;;;;;;;;;4996032;28;94811;-65
2022/06/20 15:07:36;;;;;;;2.40;0.97;;;;;;;;;;4996372;28;91707;-65
2022/06/20 15:10:14;;;;;;;2.00;1.10;;;;;;;;;;4996051;28;93809;-66
2022/06/20 15:12:41;;;;;;;1.60;1.27;;;;;;;;;;4994760;28;93625;-66
2022/06/20 15:15:12;;;;;;;4.28;0.90;;;;;;;;;;4996301;28;94904;-65
2022/06/20 15:17:52;;;;;;;1.75;1.08;;;;;;;;;;5018617;28;95536;-66
2022/06/20 15:20:31;;;;;;;0.95;0.82;;;;;;;;;;5015767;28;92521;-65
2022/06/20 15:23:03;;;;;;;1.33;0.80;;;;;;;;;;5015583;28;93114;-65
2022/06/20 15:25:38;;;;;;;1.17;1.00;;;;;;;;;;5015128;28;93407;-66
2022/06/20 15:28:12;;;;;;;1.08;0.75;;;;;;;;;;5014013;28;92402;-65
2022/06/20 15:30:38;;;;;;;1.00;0.90;;;;;;;;;;5015982;28;94383;-65